Archival Weather

Chicago O'Hare International

Chicago, Illinois (KORD)

Report from: Friday, December 2, 2022 2:51 AM CST
Current time: Friday, June 21, 2024 3:58 AM CDT

Current weather – Weather history – Daily summaries
Weather forecast

Temperature3.3°C (37.9°F)
Wind chill-1.5°C (29.2°F)
Dew point-6.7°C (19.9°F)
Winds 13 kts (6.7 m/s, 15 mph) South (190°)
Wind gusts 19 kts (9.8 m/s, 21.9 mph)
Peak wind 26 kts (13.4 m/s, 29.9 mph) South (190°) at 08:11
Visibility10 mi. (16.1 km)
Clouds Ceiling: Overcast 4,500 ft. (1,372 m)
Altimeter30.09 in.Hg (1019 mB)
Relative humidity48 %
Density altitude-1,574 ft. (-480 m)
Sea-level pressure102.0 kPa (1020 mB, 30.11 in.Hg)
Remarks Automated weather observing station with precipitation discriminator
Pressure falling more quickly
Flight conditions Visual Meteorological Conditions
Raw dataKORD 020851Z 19013G19KT 10SM OVC045 03/M07 A3009 RMK AO2 PK WND 19026/0811 SLP196 T00331067 58015
An error has occurred. This application may no longer respond until reloaded. Reload 🗙